sensor_id;sensor_type;location;lat;lon;timestamp;temperature;humidity
2657;DHT22;1338;48.176;11.792;2022-10-18T00:00:58;10.10;1.00
2657;DHT22;1338;48.176;11.792;2022-10-18T00:03:26;9.80;1.00
2657;DHT22;1338;48.176;11.792;2022-10-18T00:05:56;9.80;1.00
2657;DHT22;1338;48.176;11.792;2022-10-18T00:08:25;9.80;1.00
2657;DHT22;1338;48.176;11.792;2022-10-18T00:10:54;9.70;1.00
2657;DHT22;1338;48.176;11.792;2022-10-18T00:13:22;9.70;1.00
2657;DHT22;1338;48.176;11.792;2022-10-18T00:15:51;9.80;1.00
2657;DHT22;1338;48.176;11.792;2022-10-18T00:18:19;9.80;1.00
2657;DHT22;1338;48.176;11.792;2022-10-18T00:20:57;9.60;1.00
2657;DHT22;1338;48.176;11.792;2022-10-18T00:23:27;9.40;1.00
2657;DHT22;1338;48.176;11.792;2022-10-18T00:25:59;9.50;1.00
2657;DHT22;1338;48.176;11.792;2022-10-18T00:28:28;9.50;1.00
2657;DHT22;1338;48.176;11.792;2022-10-18T00:30:56;9.50;1.00
2657;DHT22;1338;48.176;11.792;2022-10-18T00:33:24;9.30;1.00
2657;DHT22;1338;48.176;11.792;2022-10-18T00:35:55;9.30;1.00
2657;DHT22;1338;48.176;11.792;2022-10-18T00:38:27;9.30;1.00
2657;DHT22;1338;48.176;11.792;2022-10-18T00:40:55;9.30;1.00
2657;DHT22;1338;48.176;11.792;2022-10-18T00:43:23;9.20;1.00
2657;DHT22;1338;48.176;11.792;2022-10-18T00:45:51;9.10;1.00
2657;DHT22;1338;48.176;11.792;2022-10-18T00:48:20;9.20;1.00
2657;DHT22;1338;48.176;11.792;2022-10-18T00:50:49;9.30;1.00
2657;DHT22;1338;48.176;11.792;2022-10-18T00:53:21;9.40;1.00
2657;DHT22;1338;48.176;11.792;2022-10-18T00:55:50;9.50;1.00
2657;DHT22;1338;48.176;11.792;2022-10-18T00:58:18;9.60;1.00
2657;DHT22;1338;48.176;11.792;2022-10-18T01:00:46;9.50;1.00
2657;DHT22;1338;48.176;11.792;2022-10-18T01:03:15;9.50;1.00
2657;DHT22;1338;48.176;11.792;2022-10-18T01:05:44;9.60;1.00
2657;DHT22;1338;48.176;11.792;2022-10-18T01:08:36;9.70;1.00
2657;DHT22;1338;48.176;11.792;2022-10-18T01:11:20;9.60;1.00
2657;DHT22;1338;48.176;11.792;2022-10-18T01:14:00;9.80;1.00
2657;DHT22;1338;48.176;11.792;2022-10-18T01:16:38;9.90;1.00
2657;DHT22;1338;48.176;11.792;2022-10-18T01:19:22;10.10;1.00
2657;DHT22;1338;48.176;11.792;2022-10-18T01:21:59;10.30;1.00
2657;DHT22;1338;48.176;11.792;2022-10-18T01:24:48;10.20;1.00
2657;DHT22;1338;48.176;11.792;2022-10-18T01:27:32;10.20;1.00
2657;DHT22;1338;48.176;11.792;2022-10-18T01:30:36;10.20;99.90
2657;DHT22;1338;48.176;11.792;2022-10-18T01:33:12;10.10;1.00
2657;DHT22;1338;48.176;11.792;2022-10-18T01:35:48;10.10;99.90
2657;DHT22;1338;48.176;11.792;2022-10-18T01:38:18;9.90;1.00
2657;DHT22;1338;48.176;11.792;2022-10-18T01:40:48;9.80;1.00
2657;DHT22;1338;48.176;11.792;2022-10-18T01:43:19;9.70;1.00
2657;DHT22;1338;48.176;11.792;2022-10-18T01:45:50;9.70;1.00
2657;DHT22;1338;48.176;11.792;2022-10-18T01:48:20;9.30;1.00
2657;DHT22;1338;48.176;11.792;2022-10-18T01:50:49;8.90;1.00
2657;DHT22;1338;48.176;11.792;2022-10-18T01:53:26;8.80;1.00
2657;DHT22;1338;48.176;11.792;2022-10-18T01:58:54;8.70;1.00
2657;DHT22;1338;48.176;11.792;2022-10-18T02:01:32;8.70;1.00
2657;DHT22;1338;48.176;11.792;2022-10-18T02:04:12;8.70;1.00
2657;DHT22;1338;48.176;11.792;2022-10-18T02:06:47;8.70;1.00
2657;DHT22;1338;48.176;11.792;2022-10-18T02:09:22;8.80;1.00
2657;DHT22;1338;48.176;11.792;2022-10-18T02:11:53;8.80;1.00
2657;DHT22;1338;48.176;11.792;2022-10-18T02:14:24;8.90;1.00
2657;DHT22;1338;48.176;11.792;2022-10-18T02:16:56;8.90;1.00
2657;DHT22;1338;48.176;11.792;2022-10-18T02:19:28;9.00;1.00
2657;DHT22;1338;48.176;11.792;2022-10-18T02:21:58;9.00;1.00
2657;DHT22;1338;48.176;11.792;2022-10-18T02:24:32;9.10;1.00
2657;DHT22;1338;48.176;11.792;2022-10-18T02:27:01;9.10;1.00
2657;DHT22;1338;48.176;11.792;2022-10-18T02:29:30;9.10;1.00
2657;DHT22;1338;48.176;11.792;2022-10-18T02:32:03;9.10;1.00
2657;DHT22;1338;48.176;11.792;2022-10-18T02:34:36;9.10;1.00
2657;DHT22;1338;48.176;11.792;2022-10-18T02:37:06;9.10;1.00
2657;DHT22;1338;48.176;11.792;2022-10-18T02:39:36;9.40;1.00
2657;DHT22;1338;48.176;11.792;2022-10-18T02:42:09;9.30;1.00
2657;DHT22;1338;48.176;11.792;2022-10-18T02:44:38;9.00;1.00
2657;DHT22;1338;48.176;11.792;2022-10-18T02:47:09;8.80;1.00
2657;DHT22;1338;48.176;11.792;2022-10-18T02:49:37;8.70;1.00
2657;DHT22;1338;48.176;11.792;2022-10-18T02:52:05;8.60;1.00
2657;DHT22;1338;48.176;11.792;2022-10-18T02:54:33;8.50;1.00
2657;DHT22;1338;48.176;11.792;2022-10-18T02:57:01;8.50;1.00
2657;DHT22;1338;48.176;11.792;2022-10-18T02:59:29;8.50;1.00
2657;DHT22;1338;48.176;11.792;2022-10-18T03:01:57;8.50;1.00
2657;DHT22;1338;48.176;11.792;2022-10-18T03:04:27;8.50;1.00
2657;DHT22;1338;48.176;11.792;2022-10-18T03:06:55;8.50;1.00
2657;DHT22;1338;48.176;11.792;2022-10-18T03:09:23;8.70;1.00
2657;DHT22;1338;48.176;11.792;2022-10-18T03:11:51;8.70;1.00
2657;DHT22;1338;48.176;11.792;2022-10-18T03:14:19;8.70;1.00
2657;DHT22;1338;48.176;11.792;2022-10-18T03:16:47;8.70;1.00
2657;DHT22;1338;48.176;11.792;2022-10-18T03:19:16;8.80;1.00
2657;DHT22;1338;48.176;11.792;2022-10-18T03:21:45;8.70;1.00
2657;DHT22;1338;48.176;11.792;2022-10-18T03:24:13;8.60;1.00
2657;DHT22;1338;48.176;11.792;2022-10-18T03:26:41;8.60;1.00
2657;DHT22;1338;48.176;11.792;2022-10-18T03:29:10;8.50;1.00
2657;DHT22;1338;48.176;11.792;2022-10-18T03:31:38;8.60;1.00
2657;DHT22;1338;48.176;11.792;2022-10-18T03:34:06;8.70;1.00
2657;DHT22;1338;48.176;11.792;2022-10-18T03:36:34;8.60;1.00
2657;DHT22;1338;48.176;11.792;2022-10-18T03:39:05;8.40;1.00
2657;DHT22;1338;48.176;11.792;2022-10-18T03:41:33;8.40;1.00
2657;DHT22;1338;48.176;11.792;2022-10-18T03:44:01;8.30;1.00
2657;DHT22;1338;48.176;11.792;2022-10-18T03:46:29;8.10;1.00
2657;DHT22;1338;48.176;11.792;2022-10-18T03:48:58;8.10;1.00
2657;DHT22;1338;48.176;11.792;2022-10-18T03:51:26;8.20;1.00
2657;DHT22;1338;48.176;11.792;2022-10-18T03:53:54;8.20;1.00
2657;DHT22;1338;48.176;11.792;2022-10-18T03:56:23;8.10;1.00
2657;DHT22;1338;48.176;11.792;2022-10-18T03:58:51;8.10;1.00
2657;DHT22;1338;48.176;11.792;2022-10-18T04:01:20;8.10;1.00
2657;DHT22;1338;48.176;11.792;2022-10-18T04:03:48;8.10;1.00
2657;DHT22;1338;48.176;11.792;2022-10-18T04:06:16;8.10;1.00
2657;DHT22;1338;48.176;11.792;2022-10-18T04:08:44;8.10;1.00
2657;DHT22;1338;48.176;11.792;2022-10-18T04:11:12;8.20;1.00
2657;DHT22;1338;48.176;11.792;2022-10-18T04:13:41;8.40;1.00
2657;DHT22;1338;48.176;11.792;2022-10-18T04:16:09;8.50;1.00
2657;DHT22;1338;48.176;11.792;2022-10-18T04:18:37;8.60;1.00
2657;DHT22;1338;48.176;11.792;2022-10-18T04:21:06;8.60;1.00
2657;DHT22;1338;48.176;11.792;2022-10-18T04:23:34;8.50;1.00
2657;DHT22;1338;48.176;11.792;2022-10-18T04:26:05;8.40;1.00
2657;DHT22;1338;48.176;11.792;2022-10-18T04:28:34;8.50;1.00
2657;DHT22;1338;48.176;11.792;2022-10-18T04:31:07;8.50;1.00
2657;DHT22;1338;48.176;11.792;2022-10-18T04:33:35;8.40;1.00
2657;DHT22;1338;48.176;11.792;2022-10-18T04:36:03;8.30;1.00
2657;DHT22;1338;48.176;11.792;2022-10-18T04:38:31;8.30;1.00
2657;DHT22;1338;48.176;11.792;2022-10-18T04:40:59;8.50;1.00
2657;DHT22;1338;48.176;11.792;2022-10-18T04:43:27;9.60;1.00
2657;DHT22;1338;48.176;11.792;2022-10-18T04:45:56;9.70;1.00
2657;DHT22;1338;48.176;11.792;2022-10-18T04:48:25;8.80;1.00
2657;DHT22;1338;48.176;11.792;2022-10-18T04:50:53;8.60;1.00
2657;DHT22;1338;48.176;11.792;2022-10-18T04:53:21;8.70;1.00
2657;DHT22;1338;48.176;11.792;2022-10-18T04:55:50;8.60;1.00
2657;DHT22;1338;48.176;11.792;2022-10-18T04:58:18;8.70;1.00
2657;DHT22;1338;48.176;11.792;2022-10-18T05:00:46;8.80;1.00
2657;DHT22;1338;48.176;11.792;2022-10-18T05:03:15;9.00;1.00
2657;DHT22;1338;48.176;11.792;2022-10-18T05:05:44;8.70;99.90
2657;DHT22;1338;48.176;11.792;2022-10-18T05:08:30;8.60;1.00
2657;DHT22;1338;48.176;11.792;2022-10-18T05:10:58;8.60;1.00
2657;DHT22;1338;48.176;11.792;2022-10-18T05:13:27;8.50;1.00
2657;DHT22;1338;48.176;11.792;2022-10-18T05:15:55;8.70;1.00
2657;DHT22;1338;48.176;11.792;2022-10-18T05:18:25;8.60;1.00
2657;DHT22;1338;48.176;11.792;2022-10-18T05:20:54;8.50;1.00
2657;DHT22;1338;48.176;11.792;2022-10-18T05:23:23;8.40;1.00
2657;DHT22;1338;48.176;11.792;2022-10-18T05:25:51;8.50;1.00
2657;DHT22;1338;48.176;11.792;2022-10-18T05:28:19;8.60;1.00
2657;DHT22;1338;48.176;11.792;2022-10-18T05:31:09;8.80;1.00
2657;DHT22;1338;48.176;11.792;2022-10-18T05:33:37;8.70;99.90
2657;DHT22;1338;48.176;11.792;2022-10-18T05:36:07;8.70;99.90
2657;DHT22;1338;48.176;11.792;2022-10-18T05:38:37;8.80;99.90
2657;DHT22;1338;48.176;11.792;2022-10-18T05:41:08;8.70;99.90
2657;DHT22;1338;48.176;11.792;2022-10-18T05:43:36;8.70;99.90
2657;DHT22;1338;48.176;11.792;2022-10-18T05:46:05;8.80;99.90
2657;DHT22;1338;48.176;11.792;2022-10-18T05:48:41;9.30;99.90
2657;DHT22;1338;48.176;11.792;2022-10-18T05:51:10;9.40;99.90
2657;DHT22;1338;48.176;11.792;2022-10-18T05:53:38;9.40;99.90
2657;DHT22;1338;48.176;11.792;2022-10-18T05:56:07;9.50;99.90
2657;DHT22;1338;48.176;11.792;2022-10-18T05:58:37;9.40;99.90
2657;DHT22;1338;48.176;11.792;2022-10-18T06:01:06;9.40;99.90
2657;DHT22;1338;48.176;11.792;2022-10-18T06:03:35;9.50;99.90
2657;DHT22;1338;48.176;11.792;2022-10-18T06:06:05;9.60;99.90
2657;DHT22;1338;48.176;11.792;2022-10-18T06:08:35;9.60;99.90
2657;DHT22;1338;48.176;11.792;2022-10-18T06:11:08;9.60;99.90
2657;DHT22;1338;48.176;11.792;2022-10-18T06:13:39;9.70;99.90
2657;DHT22;1338;48.176;11.792;2022-10-18T06:16:08;9.90;99.90
2657;DHT22;1338;48.176;11.792;2022-10-18T06:18:36;10.00;99.90
2657;DHT22;1338;48.176;11.792;2022-10-18T06:21:05;10.10;99.90
2657;DHT22;1338;48.176;11.792;2022-10-18T06:23:35;10.40;99.90
2657;DHT22;1338;48.176;11.792;2022-10-18T06:26:05;10.20;99.90
2657;DHT22;1338;48.176;11.792;2022-10-18T06:28:35;10.30;99.90
2657;DHT22;1338;48.176;11.792;2022-10-18T06:31:04;10.40;99.90
2657;DHT22;1338;48.176;11.792;2022-10-18T06:33:33;10.60;99.90
2657;DHT22;1338;48.176;11.792;2022-10-18T06:36:04;10.90;99.90
2657;DHT22;1338;48.176;11.792;2022-10-18T06:38:33;11.00;99.90
2657;DHT22;1338;48.176;11.792;2022-10-18T06:41:03;11.00;99.90
2657;DHT22;1338;48.176;11.792;2022-10-18T06:43:33;11.10;99.90
2657;DHT22;1338;48.176;11.792;2022-10-18T06:46:02;11.20;99.90
2657;DHT22;1338;48.176;11.792;2022-10-18T06:48:31;11.20;54.70
2657;DHT22;1338;48.176;11.792;2022-10-18T06:51:02;11.40;58.60
2657;DHT22;1338;48.176;11.792;2022-10-18T06:53:32;11.40;8.30
2657;DHT22;1338;48.176;11.792;2022-10-18T06:56:03;11.40;1.00
2657;DHT22;1338;48.176;11.792;2022-10-18T06:58:32;11.50;1.00
2657;DHT22;1338;48.176;11.792;2022-10-18T07:01:05;11.70;1.00
2657;DHT22;1338;48.176;11.792;2022-10-18T07:03:33;11.80;1.00
2657;DHT22;1338;48.176;11.792;2022-10-18T07:06:02;11.80;1.00
2657;DHT22;1338;48.176;11.792;2022-10-18T07:08:31;11.80;1.00
2657;DHT22;1338;48.176;11.792;2022-10-18T07:10:59;11.80;1.00
2657;DHT22;1338;48.176;11.792;2022-10-18T07:13:29;11.80;1.00
2657;DHT22;1338;48.176;11.792;2022-10-18T07:16:03;12.00;1.00
2657;DHT22;1338;48.176;11.792;2022-10-18T07:18:33;12.20;1.00
2657;DHT22;1338;48.176;11.792;2022-10-18T07:21:03;12.10;1.00
2657;DHT22;1338;48.176;11.792;2022-10-18T07:23:32;12.00;68.30
2657;DHT22;1338;48.176;11.792;2022-10-18T07:26:02;12.20;1.00
2657;DHT22;1338;48.176;11.792;2022-10-18T07:28:31;12.30;1.00
2657;DHT22;1338;48.176;11.792;2022-10-18T07:31:03;12.30;1.00
2657;DHT22;1338;48.176;11.792;2022-10-18T07:33:32;12.40;1.00
2657;DHT22;1338;48.176;11.792;2022-10-18T07:36:00;12.40;1.00
2657;DHT22;1338;48.176;11.792;2022-10-18T07:38:28;12.50;1.00
2657;DHT22;1338;48.176;11.792;2022-10-18T07:40:57;12.70;1.00
2657;DHT22;1338;48.176;11.792;2022-10-18T07:43:26;12.90;1.00
2657;DHT22;1338;48.176;11.792;2022-10-18T07:45:57;12.90;1.00
2657;DHT22;1338;48.176;11.792;2022-10-18T07:48:25;13.10;1.00
2657;DHT22;1338;48.176;11.792;2022-10-18T07:50:56;13.20;1.00
2657;DHT22;1338;48.176;11.792;2022-10-18T07:53:24;13.30;1.00
2657;DHT22;1338;48.176;11.792;2022-10-18T07:55:56;13.50;1.00
2657;DHT22;1338;48.176;11.792;2022-10-18T07:58:25;13.50;1.00
2657;DHT22;1338;48.176;11.792;2022-10-18T08:00:53;13.50;1.00
2657;DHT22;1338;48.176;11.792;2022-10-18T08:03:23;13.60;1.00
2657;DHT22;1338;48.176;11.792;2022-10-18T08:05:52;13.60;1.00
2657;DHT22;1338;48.176;11.792;2022-10-18T08:08:21;13.70;1.00
2657;DHT22;1338;48.176;11.792;2022-10-18T08:10:49;13.90;1.00
2657;DHT22;1338;48.176;11.792;2022-10-18T08:13:18;13.90;1.00
2657;DHT22;1338;48.176;11.792;2022-10-18T08:15:46;14.10;1.00
2657;DHT22;1338;48.176;11.792;2022-10-18T08:18:14;14.20;1.00
2657;DHT22;1338;48.176;11.792;2022-10-18T08:20:44;14.30;1.00
2657;DHT22;1338;48.176;11.792;2022-10-18T08:23:12;14.40;1.00
2657;DHT22;1338;48.176;11.792;2022-10-18T08:25:40;14.30;1.00
2657;DHT22;1338;48.176;11.792;2022-10-18T08:28:08;14.40;1.00
2657;DHT22;1338;48.176;11.792;2022-10-18T08:30:36;14.40;1.00
2657;DHT22;1338;48.176;11.792;2022-10-18T08:33:04;14.70;1.00
2657;DHT22;1338;48.176;11.792;2022-10-18T08:35:33;14.90;1.00
2657;DHT22;1338;48.176;11.792;2022-10-18T08:38:02;15.00;1.00
2657;DHT22;1338;48.176;11.792;2022-10-18T08:40:32;15.10;1.00
2657;DHT22;1338;48.176;11.792;2022-10-18T08:43:06;15.20;1.00
2657;DHT22;1338;48.176;11.792;2022-10-18T08:45:37;15.10;1.00
2657;DHT22;1338;48.176;11.792;2022-10-18T08:48:18;15.30;1.00
2657;DHT22;1338;48.176;11.792;2022-10-18T08:50:49;15.50;1.00
2657;DHT22;1338;48.176;11.792;2022-10-18T08:53:25;15.60;1.00
2657;DHT22;1338;48.176;11.792;2022-10-18T08:55:57;15.60;1.00
2657;DHT22;1338;48.176;11.792;2022-10-18T08:58:30;15.60;1.00
2657;DHT22;1338;48.176;11.792;2022-10-18T09:01:07;15.60;1.00
2657;DHT22;1338;48.176;11.792;2022-10-18T09:03:57;15.90;1.00
2657;DHT22;1338;48.176;11.792;2022-10-18T09:06:30;16.60;1.00
2657;DHT22;1338;48.176;11.792;2022-10-18T09:09:11;16.60;1.00
2657;DHT22;1338;48.176;11.792;2022-10-18T09:11:50;16.80;1.00
2657;DHT22;1338;48.176;11.792;2022-10-18T09:14:52;17.20;1.00
2657;DHT22;1338;48.176;11.792;2022-10-18T09:17:30;17.20;1.00
2657;DHT22;1338;48.176;11.792;2022-10-18T09:20:21;17.80;1.00
2657;DHT22;1338;48.176;11.792;2022-10-18T09:22:55;17.80;1.00
2657;DHT22;1338;48.176;11.792;2022-10-18T09:25:27;18.00;1.00
2657;DHT22;1338;48.176;11.792;2022-10-18T09:28:13;18.20;1.00
2657;DHT22;1338;48.176;11.792;2022-10-18T09:30:51;18.20;1.00
2657;DHT22;1338;48.176;11.792;2022-10-18T09:33:34;18.50;1.00
2657;DHT22;1338;48.176;11.792;2022-10-18T09:36:06;18.70;1.00
2657;DHT22;1338;48.176;11.792;2022-10-18T09:38:41;18.70;1.00
2657;DHT22;1338;48.176;11.792;2022-10-18T09:41:15;18.40;1.00
2657;DHT22;1338;48.176;11.792;2022-10-18T09:43:49;18.60;1.00
2657;DHT22;1338;48.176;11.792;2022-10-18T09:46:20;18.80;1.00
2657;DHT22;1338;48.176;11.792;2022-10-18T09:48:53;19.10;1.00
2657;DHT22;1338;48.176;11.792;2022-10-18T09:51:26;19.00;1.00
2657;DHT22;1338;48.176;11.792;2022-10-18T09:54:05;19.20;1.00
2657;DHT22;1338;48.176;11.792;2022-10-18T09:56:39;19.30;1.00
2657;DHT22;1338;48.176;11.792;2022-10-18T09:59:21;19.60;1.00
2657;DHT22;1338;48.176;11.792;2022-10-18T10:01:50;19.70;1.00
2657;DHT22;1338;48.176;11.792;2022-10-18T10:04:18;19.90;1.00
2657;DHT22;1338;48.176;11.792;2022-10-18T10:06:49;19.60;1.00
2657;DHT22;1338;48.176;11.792;2022-10-18T10:09:25;19.10;1.00
2657;DHT22;1338;48.176;11.792;2022-10-18T10:11:56;19.30;1.00
2657;DHT22;1338;48.176;11.792;2022-10-18T10:14:26;19.20;1.00
2657;DHT22;1338;48.176;11.792;2022-10-18T10:16:58;19.20;1.00
2657;DHT22;1338;48.176;11.792;2022-10-18T10:19:30;19.40;1.00
2657;DHT22;1338;48.176;11.792;2022-10-18T10:22:02;19.70;1.00
2657;DHT22;1338;48.176;11.792;2022-10-18T10:24:45;19.80;1.00
2657;DHT22;1338;48.176;11.792;2022-10-18T10:27:18;19.80;1.00
2657;DHT22;1338;48.176;11.792;2022-10-18T10:29:52;19.70;1.00
2657;DHT22;1338;48.176;11.792;2022-10-18T10:32:28;19.90;1.00
2657;DHT22;1338;48.176;11.792;2022-10-18T10:34:57;19.80;1.00
2657;DHT22;1338;48.176;11.792;2022-10-18T10:37:33;19.90;1.00
2657;DHT22;1338;48.176;11.792;2022-10-18T10:40:15;20.30;1.00
2657;DHT22;1338;48.176;11.792;2022-10-18T10:43:16;20.40;1.00
2657;DHT22;1338;48.176;11.792;2022-10-18T10:46:05;20.60;1.00
2657;DHT22;1338;48.176;11.792;2022-10-18T10:48:40;20.10;1.00
2657;DHT22;1338;48.176;11.792;2022-10-18T10:51:12;20.70;1.00
2657;DHT22;1338;48.176;11.792;2022-10-18T10:53:43;20.70;1.00
2657;DHT22;1338;48.176;11.792;2022-10-18T10:56:19;20.90;1.00
2657;DHT22;1338;48.176;11.792;2022-10-18T10:58:51;20.80;1.00
2657;DHT22;1338;48.176;11.792;2022-10-18T11:01:26;21.00;1.00
2657;DHT22;1338;48.176;11.792;2022-10-18T11:03:57;21.20;1.00
2657;DHT22;1338;48.176;11.792;2022-10-18T11:06:47;21.20;1.00
2657;DHT22;1338;48.176;11.792;2022-10-18T11:09:38;21.00;1.00
2657;DHT22;1338;48.176;11.792;2022-10-18T11:12:17;21.10;1.00
2657;DHT22;1338;48.176;11.792;2022-10-18T11:14:54;21.20;1.00
2657;DHT22;1338;48.176;11.792;2022-10-18T11:17:28;21.30;1.00
2657;DHT22;1338;48.176;11.792;2022-10-18T11:20:15;21.00;1.00
2657;DHT22;1338;48.176;11.792;2022-10-18T11:22:59;21.20;1.00
2657;DHT22;1338;48.176;11.792;2022-10-18T11:28:45;21.40;1.00
2657;DHT22;1338;48.176;11.792;2022-10-18T11:31:23;21.00;1.00
2657;DHT22;1338;48.176;11.792;2022-10-18T11:34:11;20.80;1.00
2657;DHT22;1338;48.176;11.792;2022-10-18T11:36:49;21.10;1.00
2657;DHT22;1338;48.176;11.792;2022-10-18T11:39:43;21.30;1.00
2657;DHT22;1338;48.176;11.792;2022-10-18T11:42:19;21.60;1.00
2657;DHT22;1338;48.176;11.792;2022-10-18T11:44:58;21.60;1.00
2657;DHT22;1338;48.176;11.792;2022-10-18T11:47:37;21.80;1.00
2657;DHT22;1338;48.176;11.792;2022-10-18T11:50:15;22.00;1.00
2657;DHT22;1338;48.176;11.792;2022-10-18T11:52:53;22.00;1.00
2657;DHT22;1338;48.176;11.792;2022-10-18T11:55:30;22.20;1.00
2657;DHT22;1338;48.176;11.792;2022-10-18T11:58:16;22.40;1.00
2657;DHT22;1338;48.176;11.792;2022-10-18T12:00:49;22.30;1.00
2657;DHT22;1338;48.176;11.792;2022-10-18T12:03:28;22.00;1.00
2657;DHT22;1338;48.176;11.792;2022-10-18T12:06:01;22.10;1.00
2657;DHT22;1338;48.176;11.792;2022-10-18T12:08:33;21.90;1.00
2657;DHT22;1338;48.176;11.792;2022-10-18T12:11:07;22.50;1.00
2657;DHT22;1338;48.176;11.792;2022-10-18T12:13:42;22.40;1.00
2657;DHT22;1338;48.176;11.792;2022-10-18T12:16:11;22.20;1.00
2657;DHT22;1338;48.176;11.792;2022-10-18T12:18:47;22.70;1.00
2657;DHT22;1338;48.176;11.792;2022-10-18T12:21:19;22.80;1.00
2657;DHT22;1338;48.176;11.792;2022-10-18T12:23:53;22.70;1.00
2657;DHT22;1338;48.176;11.792;2022-10-18T12:26:22;23.10;1.00
2657;DHT22;1338;48.176;11.792;2022-10-18T12:28:59;22.80;1.00
2657;DHT22;1338;48.176;11.792;2022-10-18T12:31:29;22.90;1.00
2657;DHT22;1338;48.176;11.792;2022-10-18T12:34:09;22.60;1.00
2657;DHT22;1338;48.176;11.792;2022-10-18T12:36:58;22.60;1.00
2657;DHT22;1338;48.176;11.792;2022-10-18T12:39:38;22.60;1.00
2657;DHT22;1338;48.176;11.792;2022-10-18T12:42:25;22.60;1.00
2657;DHT22;1338;48.176;11.792;2022-10-18T12:45:00;23.00;1.00
2657;DHT22;1338;48.176;11.792;2022-10-18T12:47:29;23.40;1.00
2657;DHT22;1338;48.176;11.792;2022-10-18T12:50:02;23.10;1.00
2657;DHT22;1338;48.176;11.792;2022-10-18T12:52:31;22.80;1.00
2657;DHT22;1338;48.176;11.792;2022-10-18T12:55:27;23.40;1.00
2657;DHT22;1338;48.176;11.792;2022-10-18T12:58:10;23.30;1.00
2657;DHT22;1338;48.176;11.792;2022-10-18T13:00:53;23.60;1.00
2657;DHT22;1338;48.176;11.792;2022-10-18T13:09:35;23.70;1.00
2657;DHT22;1338;48.176;11.792;2022-10-18T13:12:41;23.10;1.00
2657;DHT22;1338;48.176;11.792;2022-10-18T13:15:39;23.40;1.00
2657;DHT22;1338;48.176;11.792;2022-10-18T13:18:20;23.80;1.00
2657;DHT22;1338;48.176;11.792;2022-10-18T13:20:56;23.50;1.00
2657;DHT22;1338;48.176;11.792;2022-10-18T13:23:38;23.50;1.00
2657;DHT22;1338;48.176;11.792;2022-10-18T13:26:16;23.50;1.00
2657;DHT22;1338;48.176;11.792;2022-10-18T13:28:51;23.40;1.00
2657;DHT22;1338;48.176;11.792;2022-10-18T13:31:27;23.90;1.00
2657;DHT22;1338;48.176;11.792;2022-10-18T13:34:22;23.30;1.00
2657;DHT22;1338;48.176;11.792;2022-10-18T13:36:59;23.10;1.00
2657;DHT22;1338;48.176;11.792;2022-10-18T13:39:29;23.70;1.00
2657;DHT22;1338;48.176;11.792;2022-10-18T13:42:27;23.50;1.00
2657;DHT22;1338;48.176;11.792;2022-10-18T13:51:10;22.50;1.00
2657;DHT22;1338;48.176;11.792;2022-10-18T13:53:49;22.50;1.00
2657;DHT22;1338;48.176;11.792;2022-10-18T13:59:25;21.80;1.00
2657;DHT22;1338;48.176;11.792;2022-10-18T14:02:11;21.70;1.00
2657;DHT22;1338;48.176;11.792;2022-10-18T14:05:13;21.60;1.00
2657;DHT22;1338;48.176;11.792;2022-10-18T14:07:57;21.60;1.00
2657;DHT22;1338;48.176;11.792;2022-10-18T14:10:32;21.40;1.00
2657;DHT22;1338;48.176;11.792;2022-10-18T14:13:27;21.30;1.00
2657;DHT22;1338;48.176;11.792;2022-10-18T14:16:04;21.20;1.00
2657;DHT22;1338;48.176;11.792;2022-10-18T14:18:35;21.10;1.00
2657;DHT22;1338;48.176;11.792;2022-10-18T14:21:06;21.10;1.00
2657;DHT22;1338;48.176;11.792;2022-10-18T14:23:42;21.20;1.00
2657;DHT22;1338;48.176;11.792;2022-10-18T14:26:13;21.10;1.00
2657;DHT22;1338;48.176;11.792;2022-10-18T14:28:43;21.10;1.00
2657;DHT22;1338;48.176;11.792;2022-10-18T14:31:26;21.00;1.00
2657;DHT22;1338;48.176;11.792;2022-10-18T14:33:56;20.80;1.00
2657;DHT22;1338;48.176;11.792;2022-10-18T14:36:28;20.80;1.00
2657;DHT22;1338;48.176;11.792;2022-10-18T14:38:58;20.80;1.00
2657;DHT22;1338;48.176;11.792;2022-10-18T14:41:28;20.80;1.00
2657;DHT22;1338;48.176;11.792;2022-10-18T14:44:16;20.70;1.00
2657;DHT22;1338;48.176;11.792;2022-10-18T14:46:46;20.80;1.00
2657;DHT22;1338;48.176;11.792;2022-10-18T14:49:16;20.60;1.00
2657;DHT22;1338;48.176;11.792;2022-10-18T14:51:46;20.60;1.00
2657;DHT22;1338;48.176;11.792;2022-10-18T14:54:17;20.40;1.00
2657;DHT22;1338;48.176;11.792;2022-10-18T14:56:46;20.20;1.00
2657;DHT22;1338;48.176;11.792;2022-10-18T14:59:19;20.30;1.00
2657;DHT22;1338;48.176;11.792;2022-10-18T15:01:54;20.40;1.00
2657;DHT22;1338;48.176;11.792;2022-10-18T15:04:24;20.50;1.00
2657;DHT22;1338;48.176;11.792;2022-10-18T15:06:58;20.50;1.00
2657;DHT22;1338;48.176;11.792;2022-10-18T15:09:26;20.70;1.00
2657;DHT22;1338;48.176;11.792;2022-10-18T15:12:01;20.60;1.00
2657;DHT22;1338;48.176;11.792;2022-10-18T15:14:31;20.50;1.00
2657;DHT22;1338;48.176;11.792;2022-10-18T15:17:03;20.30;1.00
2657;DHT22;1338;48.176;11.792;2022-10-18T15:19:35;20.40;1.00
2657;DHT22;1338;48.176;11.792;2022-10-18T15:22:07;20.10;1.00
2657;DHT22;1338;48.176;11.792;2022-10-18T15:25:16;19.90;1.00
2657;DHT22;1338;48.176;11.792;2022-10-18T15:27:46;19.90;1.00
2657;DHT22;1338;48.176;11.792;2022-10-18T15:30:19;19.80;1.00
2657;DHT22;1338;48.176;11.792;2022-10-18T15:32:50;19.80;1.00
2657;DHT22;1338;48.176;11.792;2022-10-18T15:35:23;19.70;1.00
2657;DHT22;1338;48.176;11.792;2022-10-18T15:37:53;19.60;1.00
2657;DHT22;1338;48.176;11.792;2022-10-18T15:40:36;19.60;1.00
2657;DHT22;1338;48.176;11.792;2022-10-18T15:45:51;19.50;1.00
2657;DHT22;1338;48.176;11.792;2022-10-18T15:48:22;19.50;1.00
2657;DHT22;1338;48.176;11.792;2022-10-18T15:50:52;19.30;1.00
2657;DHT22;1338;48.176;11.792;2022-10-18T15:53:35;19.30;1.00
2657;DHT22;1338;48.176;11.792;2022-10-18T15:56:24;19.30;1.00
2657;DHT22;1338;48.176;11.792;2022-10-18T15:58:54;19.30;1.00
2657;DHT22;1338;48.176;11.792;2022-10-18T16:01:33;19.20;1.00
2657;DHT22;1338;48.176;11.792;2022-10-18T16:04:06;19.10;1.00
2657;DHT22;1338;48.176;11.792;2022-10-18T16:06:35;19.10;1.00
2657;DHT22;1338;48.176;11.792;2022-10-18T16:09:04;19.10;1.00
2657;DHT22;1338;48.176;11.792;2022-10-18T16:11:32;19.10;1.00
2657;DHT22;1338;48.176;11.792;2022-10-18T16:14:00;19.10;1.00
2657;DHT22;1338;48.176;11.792;2022-10-18T16:16:30;19.10;1.00
2657;DHT22;1338;48.176;11.792;2022-10-18T16:18:58;19.00;1.00
2657;DHT22;1338;48.176;11.792;2022-10-18T16:21:28;18.90;1.00
2657;DHT22;1338;48.176;11.792;2022-10-18T16:23:57;18.80;1.00
2657;DHT22;1338;48.176;11.792;2022-10-18T16:26:26;18.80;1.00
2657;DHT22;1338;48.176;11.792;2022-10-18T16:28:55;18.50;1.00
2657;DHT22;1338;48.176;11.792;2022-10-18T16:31:26;18.40;1.00
2657;DHT22;1338;48.176;11.792;2022-10-18T16:33:56;18.30;1.00
2657;DHT22;1338;48.176;11.792;2022-10-18T16:36:26;18.10;1.00
2657;DHT22;1338;48.176;11.792;2022-10-18T16:38:57;17.90;1.00
2657;DHT22;1338;48.176;11.792;2022-10-18T16:41:27;17.90;1.00
2657;DHT22;1338;48.176;11.792;2022-10-18T16:43:55;17.70;1.00
2657;DHT22;1338;48.176;11.792;2022-10-18T16:46:25;17.50;1.00
2657;DHT22;1338;48.176;11.792;2022-10-18T16:48:56;17.40;1.00
2657;DHT22;1338;48.176;11.792;2022-10-18T16:51:24;17.30;1.00
2657;DHT22;1338;48.176;11.792;2022-10-18T16:53:52;17.20;1.00
2657;DHT22;1338;48.176;11.792;2022-10-18T16:56:23;17.10;1.00
2657;DHT22;1338;48.176;11.792;2022-10-18T16:58:51;17.10;1.00
2657;DHT22;1338;48.176;11.792;2022-10-18T17:01:21;17.10;5.30
2657;DHT22;1338;48.176;11.792;2022-10-18T17:03:49;17.00;23.30
2657;DHT22;1338;48.176;11.792;2022-10-18T17:06:20;17.00;20.90